sensor_id;sensor_type;location;lat;lon;timestamp;P1;durP1;ratioP1;P2;durP2;ratioP2
68655;SDS011;55638;51.122;13.606;2022-11-25T00:01:24;11.45;;;10.52;;
68655;SDS011;55638;51.122;13.606;2022-11-25T00:02:57;8.73;;;8.02;;
68655;SDS011;55638;51.122;13.606;2022-11-25T00:04:29;9.20;;;8.50;;
68655;SDS011;55638;51.122;13.606;2022-11-25T00:07:42;8.85;;;8.20;;
68655;SDS011;55638;51.122;13.606;2022-11-25T00:09:14;8.52;;;7.93;;
68655;SDS011;55638;51.122;13.606;2022-11-25T00:10:46;9.60;;;8.65;;
68655;SDS011;55638;51.122;13.606;2022-11-25T00:12:18;8.25;;;7.57;;
68655;SDS011;55638;51.122;13.606;2022-11-25T00:13:50;9.73;;;9.13;;
68655;SDS011;55638;51.122;13.606;2022-11-25T00:15:22;9.65;;;8.95;;
68655;SDS011;55638;51.122;13.606;2022-11-25T00:16:53;8.23;;;7.72;;
68655;SDS011;55638;51.122;13.606;2022-11-25T00:18:25;9.50;;;8.80;;
68655;SDS011;55638;51.122;13.606;2022-11-25T00:19:57;7.53;;;6.93;;
68655;SDS011;55638;51.122;13.606;2022-11-25T00:21:32;8.30;;;7.80;;
68655;SDS011;55638;51.122;13.606;2022-11-25T00:23:05;9.68;;;9.02;;
68655;SDS011;55638;51.122;13.606;2022-11-25T00:24:36;8.00;;;7.30;;
68655;SDS011;55638;51.122;13.606;2022-11-25T00:26:09;8.43;;;7.97;;
68655;SDS011;55638;51.122;13.606;2022-11-25T00:27:43;7.13;;;6.63;;
68655;SDS011;55638;51.122;13.606;2022-11-25T00:29:14;7.50;;;6.82;;
68655;SDS011;55638;51.122;13.606;2022-11-25T00:30:46;7.78;;;7.18;;
68655;SDS011;55638;51.122;13.606;2022-11-25T00:32:18;8.13;;;7.57;;
68655;SDS011;55638;51.122;13.606;2022-11-25T00:33:50;7.93;;;7.32;;
68655;SDS011;55638;51.122;13.606;2022-11-25T00:35:22;8.45;;;7.90;;
68655;SDS011;55638;51.122;13.606;2022-11-25T00:36:54;8.80;;;8.18;;
68655;SDS011;55638;51.122;13.606;2022-11-25T00:38:26;7.72;;;7.32;;
68655;SDS011;55638;51.122;13.606;2022-11-25T00:39:58;8.48;;;8.00;;
68655;SDS011;55638;51.122;13.606;2022-11-25T00:41:30;7.57;;;7.07;;
68655;SDS011;55638;51.122;13.606;2022-11-25T00:43:20;8.95;;;8.20;;
68655;SDS011;55638;51.122;13.606;2022-11-25T00:45:11;8.40;;;7.80;;
68655;SDS011;55638;51.122;13.606;2022-11-25T00:46:42;8.48;;;7.88;;
68655;SDS011;55638;51.122;13.606;2022-11-25T00:48:14;10.13;;;9.48;;
68655;SDS011;55638;51.122;13.606;2022-11-25T00:49:47;7.95;;;7.45;;
68655;SDS011;55638;51.122;13.606;2022-11-25T00:51:24;8.60;;;8.07;;
68655;SDS011;55638;51.122;13.606;2022-11-25T00:52:55;8.75;;;8.13;;
68655;SDS011;55638;51.122;13.606;2022-11-25T00:54:27;9.30;;;8.70;;
68655;SDS011;55638;51.122;13.606;2022-11-25T00:56:02;7.47;;;6.90;;
68655;SDS011;55638;51.122;13.606;2022-11-25T00:57:43;9.75;;;8.95;;
68655;SDS011;55638;51.122;13.606;2022-11-25T00:59:16;9.40;;;8.73;;
68655;SDS011;55638;51.122;13.606;2022-11-25T01:00:48;9.63;;;8.93;;
68655;SDS011;55638;51.122;13.606;2022-11-25T01:02:20;9.48;;;8.70;;
68655;SDS011;55638;51.122;13.606;2022-11-25T01:03:52;8.27;;;7.57;;
68655;SDS011;55638;51.122;13.606;2022-11-25T01:05:24;7.55;;;6.97;;
68655;SDS011;55638;51.122;13.606;2022-11-25T01:06:57;7.95;;;7.38;;
68655;SDS011;55638;51.122;13.606;2022-11-25T01:08:31;9.43;;;8.90;;
68655;SDS011;55638;51.122;13.606;2022-11-25T01:10:04;8.10;;;7.53;;
68655;SDS011;55638;51.122;13.606;2022-11-25T01:11:36;10.30;;;9.50;;
68655;SDS011;55638;51.122;13.606;2022-11-25T01:13:08;10.88;;;10.07;;
68655;SDS011;55638;51.122;13.606;2022-11-25T01:14:40;10.93;;;10.13;;
68655;SDS011;55638;51.122;13.606;2022-11-25T01:16:13;11.52;;;10.63;;
68655;SDS011;55638;51.122;13.606;2022-11-25T01:17:46;12.02;;;11.00;;
68655;SDS011;55638;51.122;13.606;2022-11-25T01:19:18;14.57;;;13.73;;
68655;SDS011;55638;51.122;13.606;2022-11-25T01:20:50;11.93;;;11.23;;
68655;SDS011;55638;51.122;13.606;2022-11-25T01:22:22;9.38;;;8.73;;
68655;SDS011;55638;51.122;13.606;2022-11-25T01:23:54;12.18;;;11.57;;
68655;SDS011;55638;51.122;13.606;2022-11-25T01:25:26;14.07;;;12.98;;
68655;SDS011;55638;51.122;13.606;2022-11-25T01:26:58;11.43;;;10.68;;
68655;SDS011;55638;51.122;13.606;2022-11-25T01:28:30;12.00;;;11.20;;
68655;SDS011;55638;51.122;13.606;2022-11-25T01:30:02;11.95;;;11.02;;
68655;SDS011;55638;51.122;13.606;2022-11-25T01:31:36;12.88;;;11.88;;
68655;SDS011;55638;51.122;13.606;2022-11-25T01:33:08;10.68;;;9.85;;
68655;SDS011;55638;51.122;13.606;2022-11-25T01:34:40;10.20;;;9.50;;
68655;SDS011;55638;51.122;13.606;2022-11-25T01:36:13;9.90;;;9.30;;
68655;SDS011;55638;51.122;13.606;2022-11-25T01:37:46;11.77;;;10.90;;
68655;SDS011;55638;51.122;13.606;2022-11-25T01:39:19;10.43;;;9.82;;
68655;SDS011;55638;51.122;13.606;2022-11-25T01:41:00;10.73;;;10.02;;
68655;SDS011;55638;51.122;13.606;2022-11-25T01:42:33;11.85;;;11.15;;
68655;SDS011;55638;51.122;13.606;2022-11-25T01:45:37;10.52;;;9.93;;
68655;SDS011;55638;51.122;13.606;2022-11-25T01:47:11;10.32;;;9.63;;
68655;SDS011;55638;51.122;13.606;2022-11-25T01:48:59;13.02;;;12.32;;
68655;SDS011;55638;51.122;13.606;2022-11-25T01:50:34;11.05;;;10.35;;
68655;SDS011;55638;51.122;13.606;2022-11-25T01:53:41;11.20;;;10.55;;
68655;SDS011;55638;51.122;13.606;2022-11-25T01:55:14;10.82;;;10.02;;
68655;SDS011;55638;51.122;13.606;2022-11-25T01:57:00;12.00;;;11.38;;
68655;SDS011;55638;51.122;13.606;2022-11-25T01:58:36;13.00;;;12.23;;
68655;SDS011;55638;51.122;13.606;2022-11-25T02:00:12;11.00;;;10.30;;
68655;SDS011;55638;51.122;13.606;2022-11-25T02:01:47;10.18;;;9.68;;
68655;SDS011;55638;51.122;13.606;2022-11-25T02:03:21;9.93;;;9.38;;
68655;SDS011;55638;51.122;13.606;2022-11-25T02:05:03;11.82;;;11.13;;
68655;SDS011;55638;51.122;13.606;2022-11-25T02:06:41;11.43;;;10.75;;
68655;SDS011;55638;51.122;13.606;2022-11-25T02:08:18;12.95;;;12.20;;
68655;SDS011;55638;51.122;13.606;2022-11-25T02:09:54;12.02;;;11.25;;
68655;SDS011;55638;51.122;13.606;2022-11-25T02:11:27;10.05;;;9.35;;
68655;SDS011;55638;51.122;13.606;2022-11-25T02:13:01;9.82;;;9.23;;
68655;SDS011;55638;51.122;13.606;2022-11-25T02:14:34;9.07;;;8.57;;
68655;SDS011;55638;51.122;13.606;2022-11-25T02:16:06;10.13;;;9.32;;
68655;SDS011;55638;51.122;13.606;2022-11-25T02:17:38;10.18;;;9.48;;
68655;SDS011;55638;51.122;13.606;2022-11-25T02:19:15;11.05;;;10.25;;
68655;SDS011;55638;51.122;13.606;2022-11-25T02:20:53;9.65;;;9.10;;
68655;SDS011;55638;51.122;13.606;2022-11-25T02:22:32;10.00;;;9.30;;
68655;SDS011;55638;51.122;13.606;2022-11-25T02:26:10;10.23;;;9.45;;
68655;SDS011;55638;51.122;13.606;2022-11-25T02:27:43;11.10;;;10.40;;
68655;SDS011;55638;51.122;13.606;2022-11-25T02:29:19;10.70;;;10.05;;
68655;SDS011;55638;51.122;13.606;2022-11-25T02:30:52;8.98;;;8.18;;
68655;SDS011;55638;51.122;13.606;2022-11-25T02:32:25;9.13;;;8.57;;
68655;SDS011;55638;51.122;13.606;2022-11-25T02:33:57;9.55;;;8.93;;
68655;SDS011;55638;51.122;13.606;2022-11-25T02:35:31;12.07;;;11.43;;
68655;SDS011;55638;51.122;13.606;2022-11-25T02:37:05;13.88;;;12.98;;
68655;SDS011;55638;51.122;13.606;2022-11-25T02:40:15;14.98;;;14.23;;
68655;SDS011;55638;51.122;13.606;2022-11-25T02:41:52;11.90;;;11.32;;
68655;SDS011;55638;51.122;13.606;2022-11-25T02:43:28;18.67;;;17.65;;
68655;SDS011;55638;51.122;13.606;2022-11-25T02:45:00;15.32;;;14.52;;
68655;SDS011;55638;51.122;13.606;2022-11-25T02:46:32;16.27;;;15.38;;
68655;SDS011;55638;51.122;13.606;2022-11-25T02:48:05;14.80;;;13.88;;
68655;SDS011;55638;51.122;13.606;2022-11-25T02:49:37;11.70;;;10.95;;
68655;SDS011;55638;51.122;13.606;2022-11-25T02:51:10;14.35;;;13.52;;
68655;SDS011;55638;51.122;13.606;2022-11-25T02:52:44;12.15;;;11.43;;
68655;SDS011;55638;51.122;13.606;2022-11-25T02:54:16;11.00;;;10.40;;
68655;SDS011;55638;51.122;13.606;2022-11-25T02:55:48;11.10;;;10.45;;
68655;SDS011;55638;51.122;13.606;2022-11-25T02:57:20;12.95;;;12.18;;
68655;SDS011;55638;51.122;13.606;2022-11-25T02:58:52;11.90;;;11.18;;
68655;SDS011;55638;51.122;13.606;2022-11-25T03:00:24;10.40;;;9.77;;
68655;SDS011;55638;51.122;13.606;2022-11-25T03:01:56;12.20;;;11.30;;
68655;SDS011;55638;51.122;13.606;2022-11-25T03:03:29;10.60;;;9.95;;
68655;SDS011;55638;51.122;13.606;2022-11-25T03:05:01;10.40;;;9.70;;
68655;SDS011;55638;51.122;13.606;2022-11-25T03:06:34;10.95;;;10.18;;
68655;SDS011;55638;51.122;13.606;2022-11-25T03:08:06;9.80;;;9.20;;
68655;SDS011;55638;51.122;13.606;2022-11-25T03:09:40;11.13;;;10.50;;
68655;SDS011;55638;51.122;13.606;2022-11-25T03:11:15;10.30;;;9.70;;
68655;SDS011;55638;51.122;13.606;2022-11-25T03:12:47;12.30;;;11.50;;
68655;SDS011;55638;51.122;13.606;2022-11-25T03:14:19;12.82;;;11.85;;
68655;SDS011;55638;51.122;13.606;2022-11-25T03:15:51;13.27;;;12.55;;
68655;SDS011;55638;51.122;13.606;2022-11-25T03:17:23;11.30;;;10.50;;
68655;SDS011;55638;51.122;13.606;2022-11-25T03:18:55;13.50;;;12.65;;
68655;SDS011;55638;51.122;13.606;2022-11-25T03:20:27;10.52;;;9.85;;
68655;SDS011;55638;51.122;13.606;2022-11-25T03:21:58;11.10;;;10.40;;
68655;SDS011;55638;51.122;13.606;2022-11-25T03:23:30;11.07;;;10.32;;
68655;SDS011;55638;51.122;13.606;2022-11-25T03:25:02;11.90;;;11.18;;
68655;SDS011;55638;51.122;13.606;2022-11-25T03:26:34;11.50;;;10.80;;
68655;SDS011;55638;51.122;13.606;2022-11-25T03:28:06;10.02;;;9.32;;
68655;SDS011;55638;51.122;13.606;2022-11-25T03:29:38;10.77;;;10.07;;
68655;SDS011;55638;51.122;13.606;2022-11-25T03:31:11;10.23;;;9.55;;
68655;SDS011;55638;51.122;13.606;2022-11-25T03:32:43;12.52;;;11.80;;
68655;SDS011;55638;51.122;13.606;2022-11-25T03:34:16;12.65;;;11.93;;
68655;SDS011;55638;51.122;13.606;2022-11-25T03:35:48;11.90;;;11.18;;
68655;SDS011;55638;51.122;13.606;2022-11-25T03:37:20;11.43;;;10.80;;
68655;SDS011;55638;51.122;13.606;2022-11-25T03:38:52;10.95;;;10.23;;
68655;SDS011;55638;51.122;13.606;2022-11-25T03:40:24;12.45;;;11.60;;
68655;SDS011;55638;51.122;13.606;2022-11-25T03:41:56;14.25;;;13.45;;
68655;SDS011;55638;51.122;13.606;2022-11-25T03:43:29;11.60;;;10.73;;
68655;SDS011;55638;51.122;13.606;2022-11-25T03:45:01;9.23;;;8.73;;
68655;SDS011;55638;51.122;13.606;2022-11-25T03:46:33;11.93;;;11.23;;
68655;SDS011;55638;51.122;13.606;2022-11-25T03:48:07;12.60;;;11.70;;
68655;SDS011;55638;51.122;13.606;2022-11-25T03:49:40;11.20;;;10.50;;
68655;SDS011;55638;51.122;13.606;2022-11-25T03:51:13;13.43;;;12.63;;
68655;SDS011;55638;51.122;13.606;2022-11-25T03:52:44;12.45;;;11.77;;
68655;SDS011;55638;51.122;13.606;2022-11-25T03:54:17;11.65;;;10.73;;
68655;SDS011;55638;51.122;13.606;2022-11-25T03:56:17;14.52;;;13.68;;
68655;SDS011;55638;51.122;13.606;2022-11-25T03:57:49;13.32;;;12.63;;
68655;SDS011;55638;51.122;13.606;2022-11-25T03:59:21;12.82;;;12.05;;
68655;SDS011;55638;51.122;13.606;2022-11-25T04:00:58;11.43;;;10.73;;
68655;SDS011;55638;51.122;13.606;2022-11-25T04:02:30;13.20;;;12.50;;
68655;SDS011;55638;51.122;13.606;2022-11-25T04:04:02;13.18;;;12.45;;
68655;SDS011;55638;51.122;13.606;2022-11-25T04:05:34;13.98;;;13.13;;
68655;SDS011;55638;51.122;13.606;2022-11-25T04:07:10;13.07;;;12.32;;
68655;SDS011;55638;51.122;13.606;2022-11-25T04:08:42;14.15;;;13.35;;
68655;SDS011;55638;51.122;13.606;2022-11-25T04:10:14;12.57;;;11.80;;
68655;SDS011;55638;51.122;13.606;2022-11-25T04:11:46;13.35;;;12.55;;
68655;SDS011;55638;51.122;13.606;2022-11-25T04:13:47;15.40;;;14.60;;
68655;SDS011;55638;51.122;13.606;2022-11-25T04:15:19;15.32;;;14.50;;
68655;SDS011;55638;51.122;13.606;2022-11-25T04:16:55;13.20;;;12.32;;
68655;SDS011;55638;51.122;13.606;2022-11-25T04:18:27;14.65;;;13.77;;
68655;SDS011;55638;51.122;13.606;2022-11-25T04:20:02;13.68;;;12.98;;
68655;SDS011;55638;51.122;13.606;2022-11-25T04:21:34;13.30;;;12.52;;
68655;SDS011;55638;51.122;13.606;2022-11-25T04:23:07;14.18;;;13.25;;
68655;SDS011;55638;51.122;13.606;2022-11-25T04:24:46;13.07;;;12.23;;
68655;SDS011;55638;51.122;13.606;2022-11-25T04:26:23;14.20;;;13.45;;
68655;SDS011;55638;51.122;13.606;2022-11-25T04:27:55;14.50;;;13.70;;
68655;SDS011;55638;51.122;13.606;2022-11-25T04:29:33;15.20;;;14.40;;
68655;SDS011;55638;51.122;13.606;2022-11-25T04:31:07;15.63;;;14.73;;
68655;SDS011;55638;51.122;13.606;2022-11-25T04:32:43;15.75;;;14.93;;
68655;SDS011;55638;51.122;13.606;2022-11-25T04:34:17;13.80;;;13.00;;
68655;SDS011;55638;51.122;13.606;2022-11-25T04:35:51;14.50;;;13.50;;
68655;SDS011;55638;51.122;13.606;2022-11-25T04:37:24;14.18;;;13.40;;
68655;SDS011;55638;51.122;13.606;2022-11-25T04:38:57;15.05;;;14.23;;
68655;SDS011;55638;51.122;13.606;2022-11-25T04:40:29;14.05;;;13.25;;
68655;SDS011;55638;51.122;13.606;2022-11-25T04:42:14;15.82;;;14.85;;
68655;SDS011;55638;51.122;13.606;2022-11-25T04:44:07;15.38;;;14.57;;
68655;SDS011;55638;51.122;13.606;2022-11-25T04:45:40;15.75;;;14.60;;
68655;SDS011;55638;51.122;13.606;2022-11-25T04:47:32;14.30;;;13.50;;
68655;SDS011;55638;51.122;13.606;2022-11-25T04:49:04;14.32;;;13.52;;
68655;SDS011;55638;51.122;13.606;2022-11-25T04:50:36;13.20;;;12.35;;
68655;SDS011;55638;51.122;13.606;2022-11-25T04:52:14;13.10;;;12.30;;
68655;SDS011;55638;51.122;13.606;2022-11-25T04:53:45;12.48;;;11.65;;
68655;SDS011;55638;51.122;13.606;2022-11-25T04:55:18;15.18;;;14.35;;
68655;SDS011;55638;51.122;13.606;2022-11-25T04:56:50;13.70;;;13.00;;
68655;SDS011;55638;51.122;13.606;2022-11-25T04:58:23;13.93;;;12.95;;
68655;SDS011;55638;51.122;13.606;2022-11-25T05:00:13;14.27;;;13.37;;
68655;SDS011;55638;51.122;13.606;2022-11-25T05:01:45;12.20;;;11.50;;
68655;SDS011;55638;51.122;13.606;2022-11-25T05:03:36;13.20;;;12.38;;
68655;SDS011;55638;51.122;13.606;2022-11-25T05:05:08;11.82;;;11.13;;
68655;SDS011;55638;51.122;13.606;2022-11-25T05:06:41;13.00;;;12.15;;
68655;SDS011;55638;51.122;13.606;2022-11-25T05:08:12;11.77;;;11.07;;
68655;SDS011;55638;51.122;13.606;2022-11-25T05:09:44;11.75;;;11.07;;
68655;SDS011;55638;51.122;13.606;2022-11-25T05:11:24;12.18;;;11.48;;
68655;SDS011;55638;51.122;13.606;2022-11-25T05:12:56;11.45;;;10.73;;
68655;SDS011;55638;51.122;13.606;2022-11-25T05:14:28;11.00;;;10.23;;
68655;SDS011;55638;51.122;13.606;2022-11-25T05:16:00;10.93;;;10.30;;
68655;SDS011;55638;51.122;13.606;2022-11-25T05:17:32;10.27;;;9.45;;
68655;SDS011;55638;51.122;13.606;2022-11-25T05:19:03;11.07;;;10.18;;
68655;SDS011;55638;51.122;13.606;2022-11-25T05:20:35;10.30;;;9.60;;
68655;SDS011;55638;51.122;13.606;2022-11-25T05:22:11;11.52;;;10.60;;
68655;SDS011;55638;51.122;13.606;2022-11-25T05:23:45;10.30;;;9.60;;
68655;SDS011;55638;51.122;13.606;2022-11-25T05:25:19;11.15;;;10.35;;
68655;SDS011;55638;51.122;13.606;2022-11-25T05:27:07;11.32;;;10.57;;
68655;SDS011;55638;51.122;13.606;2022-11-25T05:28:39;9.48;;;8.77;;
68655;SDS011;55638;51.122;13.606;2022-11-25T05:30:10;9.50;;;8.93;;
68655;SDS011;55638;51.122;13.606;2022-11-25T05:31:44;9.95;;;9.35;;
68655;SDS011;55638;51.122;13.606;2022-11-25T05:33:17;9.82;;;9.13;;
68655;SDS011;55638;51.122;13.606;2022-11-25T05:34:49;9.93;;;9.20;;
68655;SDS011;55638;51.122;13.606;2022-11-25T05:36:21;11.95;;;11.05;;
68655;SDS011;55638;51.122;13.606;2022-11-25T05:37:53;9.25;;;8.75;;
68655;SDS011;55638;51.122;13.606;2022-11-25T05:39:25;8.95;;;8.35;;
68655;SDS011;55638;51.122;13.606;2022-11-25T05:41:20;9.85;;;9.25;;
68655;SDS011;55638;51.122;13.606;2022-11-25T05:42:53;9.63;;;9.05;;
68655;SDS011;55638;51.122;13.606;2022-11-25T05:44:25;9.77;;;9.18;;
68655;SDS011;55638;51.122;13.606;2022-11-25T05:45:57;9.48;;;8.95;;
68655;SDS011;55638;51.122;13.606;2022-11-25T05:47:29;9.27;;;8.77;;
68655;SDS011;55638;51.122;13.606;2022-11-25T05:49:02;9.02;;;8.43;;
68655;SDS011;55638;51.122;13.606;2022-11-25T05:50:35;9.18;;;8.57;;
68655;SDS011;55638;51.122;13.606;2022-11-25T05:52:18;8.75;;;8.25;;
68655;SDS011;55638;51.122;13.606;2022-11-25T05:53:56;8.52;;;8.02;;
68655;SDS011;55638;51.122;13.606;2022-11-25T05:55:32;9.27;;;8.68;;
68655;SDS011;55638;51.122;13.606;2022-11-25T05:57:06;8.90;;;8.20;;
68655;SDS011;55638;51.122;13.606;2022-11-25T05:58:51;8.82;;;8.27;;
68655;SDS011;55638;51.122;13.606;2022-11-25T06:00:26;7.75;;;7.18;;
68655;SDS011;55638;51.122;13.606;2022-11-25T06:02:02;7.50;;;7.03;;
68655;SDS011;55638;51.122;13.606;2022-11-25T06:03:35;8.00;;;7.35;;
68655;SDS011;55638;51.122;13.606;2022-11-25T06:05:07;7.47;;;7.05;;
68655;SDS011;55638;51.122;13.606;2022-11-25T06:06:39;7.28;;;6.88;;
68655;SDS011;55638;51.122;13.606;2022-11-25T06:08:11;7.50;;;6.90;;
68655;SDS011;55638;51.122;13.606;2022-11-25T06:09:43;6.65;;;6.15;;
68655;SDS011;55638;51.122;13.606;2022-11-25T06:11:15;8.35;;;7.75;;
68655;SDS011;55638;51.122;13.606;2022-11-25T06:12:48;8.20;;;7.60;;
68655;SDS011;55638;51.122;13.606;2022-11-25T06:14:20;7.90;;;7.45;;
68655;SDS011;55638;51.122;13.606;2022-11-25T06:15:53;7.78;;;7.38;;
68655;SDS011;55638;51.122;13.606;2022-11-25T06:17:25;8.57;;;7.97;;
68655;SDS011;55638;51.122;13.606;2022-11-25T06:19:07;8.73;;;8.07;;
68655;SDS011;55638;51.122;13.606;2022-11-25T06:20:41;8.43;;;7.72;;
68655;SDS011;55638;51.122;13.606;2022-11-25T06:22:13;8.82;;;8.32;;
68655;SDS011;55638;51.122;13.606;2022-11-25T06:23:45;9.07;;;8.45;;
68655;SDS011;55638;51.122;13.606;2022-11-25T06:25:19;8.55;;;7.93;;
68655;SDS011;55638;51.122;13.606;2022-11-25T06:26:53;8.63;;;7.95;;
68655;SDS011;55638;51.122;13.606;2022-11-25T06:28:24;8.45;;;7.75;;
68655;SDS011;55638;51.122;13.606;2022-11-25T06:29:56;9.35;;;8.65;;
68655;SDS011;55638;51.122;13.606;2022-11-25T06:31:28;9.02;;;8.35;;
68655;SDS011;55638;51.122;13.606;2022-11-25T06:33:20;10.23;;;9.45;;
68655;SDS011;55638;51.122;13.606;2022-11-25T06:34:52;9.13;;;8.43;;
68655;SDS011;55638;51.122;13.606;2022-11-25T06:36:41;9.15;;;8.45;;
68655;SDS011;55638;51.122;13.606;2022-11-25T06:38:13;9.82;;;9.13;;
68655;SDS011;55638;51.122;13.606;2022-11-25T06:39:45;9.95;;;9.20;;
68655;SDS011;55638;51.122;13.606;2022-11-25T06:41:17;9.82;;;9.13;;
68655;SDS011;55638;51.122;13.606;2022-11-25T06:42:49;10.30;;;9.48;;
68655;SDS011;55638;51.122;13.606;2022-11-25T06:44:21;10.10;;;9.40;;
68655;SDS011;55638;51.122;13.606;2022-11-25T06:45:53;9.73;;;8.93;;
68655;SDS011;55638;51.122;13.606;2022-11-25T06:47:24;9.60;;;8.90;;
68655;SDS011;55638;51.122;13.606;2022-11-25T06:48:57;10.07;;;9.38;;
68655;SDS011;55638;51.122;13.606;2022-11-25T06:50:30;10.85;;;10.07;;
68655;SDS011;55638;51.122;13.606;2022-11-25T06:52:02;10.80;;;10.00;;
68655;SDS011;55638;51.122;13.606;2022-11-25T06:53:34;11.27;;;10.27;;
68655;SDS011;55638;51.122;13.606;2022-11-25T06:55:06;11.07;;;10.13;;
68655;SDS011;55638;51.122;13.606;2022-11-25T06:56:39;10.23;;;9.52;;
68655;SDS011;55638;51.122;13.606;2022-11-25T06:58:11;10.43;;;9.65;;
68655;SDS011;55638;51.122;13.606;2022-11-25T07:00:03;10.93;;;10.23;;
68655;SDS011;55638;51.122;13.606;2022-11-25T07:01:35;10.70;;;10.00;;
68655;SDS011;55638;51.122;13.606;2022-11-25T07:03:07;10.50;;;9.77;;
68655;SDS011;55638;51.122;13.606;2022-11-25T07:04:39;11.25;;;10.48;;
68655;SDS011;55638;51.122;13.606;2022-11-25T07:06:11;10.95;;;10.25;;
68655;SDS011;55638;51.122;13.606;2022-11-25T07:07:44;10.60;;;9.93;;
68655;SDS011;55638;51.122;13.606;2022-11-25T07:09:16;11.82;;;10.80;;
68655;SDS011;55638;51.122;13.606;2022-11-25T07:10:49;10.40;;;9.70;;
68655;SDS011;55638;51.122;13.606;2022-11-25T07:12:22;11.38;;;10.57;;
68655;SDS011;55638;51.122;13.606;2022-11-25T07:13:55;11.40;;;10.55;;
68655;SDS011;55638;51.122;13.606;2022-11-25T07:15:28;10.60;;;9.93;;
68655;SDS011;55638;51.122;13.606;2022-11-25T07:17:00;11.00;;;10.30;;
68655;SDS011;55638;51.122;13.606;2022-11-25T07:18:32;11.38;;;10.27;;
68655;SDS011;55638;51.122;13.606;2022-11-25T07:20:06;11.48;;;10.68;;
68655;SDS011;55638;51.122;13.606;2022-11-25T07:21:38;10.25;;;9.45;;
68655;SDS011;55638;51.122;13.606;2022-11-25T07:23:10;9.10;;;8.50;;
68655;SDS011;55638;51.122;13.606;2022-11-25T07:24:42;10.32;;;9.20;;
68655;SDS011;55638;51.122;13.606;2022-11-25T07:26:18;9.23;;;8.52;;
68655;SDS011;55638;51.122;13.606;2022-11-25T07:27:52;9.10;;;8.10;;
68655;SDS011;55638;51.122;13.606;2022-11-25T07:29:23;10.20;;;9.45;;
68655;SDS011;55638;51.122;13.606;2022-11-25T07:31:17;9.38;;;8.77;;
68655;SDS011;55638;51.122;13.606;2022-11-25T07:32:55;10.30;;;9.55;;
68655;SDS011;55638;51.122;13.606;2022-11-25T07:34:27;9.23;;;8.52;;
68655;SDS011;55638;51.122;13.606;2022-11-25T07:36:06;9.13;;;8.48;;
68655;SDS011;55638;51.122;13.606;2022-11-25T07:37:39;10.32;;;9.52;;
68655;SDS011;55638;51.122;13.606;2022-11-25T07:39:12;10.60;;;9.60;;
68655;SDS011;55638;51.122;13.606;2022-11-25T07:40:45;11.40;;;10.60;;
68655;SDS011;55638;51.122;13.606;2022-11-25T07:42:17;11.38;;;10.45;;
68655;SDS011;55638;51.122;13.606;2022-11-25T07:43:50;11.73;;;10.65;;
68655;SDS011;55638;51.122;13.606;2022-11-25T07:45:26;11.20;;;10.25;;
68655;SDS011;55638;51.122;13.606;2022-11-25T07:47:09;12.23;;;11.10;;
68655;SDS011;55638;51.122;13.606;2022-11-25T07:48:41;10.85;;;10.05;;
68655;SDS011;55638;51.122;13.606;2022-11-25T07:50:14;11.00;;;10.00;;
68655;SDS011;55638;51.122;13.606;2022-11-25T07:51:52;11.55;;;10.65;;
68655;SDS011;55638;51.122;13.606;2022-11-25T07:53:26;12.10;;;10.93;;
68655;SDS011;55638;51.122;13.606;2022-11-25T07:54:58;14.05;;;10.63;;
68655;SDS011;55638;51.122;13.606;2022-11-25T07:56:31;11.30;;;10.32;;
68655;SDS011;55638;51.122;13.606;2022-11-25T07:58:05;10.75;;;9.85;;
68655;SDS011;55638;51.122;13.606;2022-11-25T07:59:36;11.55;;;10.52;;
68655;SDS011;55638;51.122;13.606;2022-11-25T08:01:11;11.70;;;10.82;;
68655;SDS011;55638;51.122;13.606;2022-11-25T08:02:45;11.48;;;10.48;;
68655;SDS011;55638;51.122;13.606;2022-11-25T08:04:17;11.30;;;10.48;;
68655;SDS011;55638;51.122;13.606;2022-11-25T08:05:51;11.80;;;10.85;;
68655;SDS011;55638;51.122;13.606;2022-11-25T08:07:23;12.60;;;11.60;;
68655;SDS011;55638;51.122;13.606;2022-11-25T08:08:55;11.23;;;10.25;;
68655;SDS011;55638;51.122;13.606;2022-11-25T08:10:28;12.23;;;11.32;;
68655;SDS011;55638;51.122;13.606;2022-11-25T08:12:00;13.00;;;11.98;;
68655;SDS011;55638;51.122;13.606;2022-11-25T08:13:32;14.38;;;13.27;;
68655;SDS011;55638;51.122;13.606;2022-11-25T08:15:04;14.13;;;13.10;;
68655;SDS011;55638;51.122;13.606;2022-11-25T08:16:37;14.23;;;13.13;;
68655;SDS011;55638;51.122;13.606;2022-11-25T08:18:09;14.15;;;13.05;;
68655;SDS011;55638;51.122;13.606;2022-11-25T08:19:41;15.93;;;14.68;;
68655;SDS011;55638;51.122;13.606;2022-11-25T08:21:13;14.68;;;13.60;;
68655;SDS011;55638;51.122;13.606;2022-11-25T08:22:46;14.10;;;13.13;;
68655;SDS011;55638;51.122;13.606;2022-11-25T08:24:19;14.50;;;13.50;;
68655;SDS011;55638;51.122;13.606;2022-11-25T08:25:51;13.90;;;12.98;;
68655;SDS011;55638;51.122;13.606;2022-11-25T08:27:23;15.77;;;14.25;;
68655;SDS011;55638;51.122;13.606;2022-11-25T08:28:55;15.05;;;13.85;;
68655;SDS011;55638;51.122;13.606;2022-11-25T08:30:28;14.40;;;13.20;;
68655;SDS011;55638;51.122;13.606;2022-11-25T08:31:59;13.85;;;12.70;;
68655;SDS011;55638;51.122;13.606;2022-11-25T08:33:31;13.73;;;12.52;;
68655;SDS011;55638;51.122;13.606;2022-11-25T08:35:04;14.55;;;13.25;;
68655;SDS011;55638;51.122;13.606;2022-11-25T08:36:37;14.18;;;13.18;;
68655;SDS011;55638;51.122;13.606;2022-11-25T08:38:14;15.05;;;13.88;;
68655;SDS011;55638;51.122;13.606;2022-11-25T08:39:47;14.52;;;13.10;;
68655;SDS011;55638;51.122;13.606;2022-11-25T08:41:25;14.35;;;13.05;;
68655;SDS011;55638;51.122;13.606;2022-11-25T08:42:59;14.52;;;13.38;;
68655;SDS011;55638;51.122;13.606;2022-11-25T08:44:31;14.35;;;13.15;;
68655;SDS011;55638;51.122;13.606;2022-11-25T08:46:07;14.65;;;13.55;;
68655;SDS011;55638;51.122;13.606;2022-11-25T08:47:41;15.25;;;14.02;;
68655;SDS011;55638;51.122;13.606;2022-11-25T08:49:13;14.35;;;13.25;;
68655;SDS011;55638;51.122;13.606;2022-11-25T08:50:49;14.95;;;13.63;;
68655;SDS011;55638;51.122;13.606;2022-11-25T08:52:23;16.02;;;14.57;;
68655;SDS011;55638;51.122;13.606;2022-11-25T08:53:54;13.70;;;12.43;;
68655;SDS011;55638;51.122;13.606;2022-11-25T08:55:27;15.25;;;14.10;;
68655;SDS011;55638;51.122;13.606;2022-11-25T08:56:59;14.80;;;13.57;;
68655;SDS011;55638;51.122;13.606;2022-11-25T08:58:31;13.75;;;12.70;;
68655;SDS011;55638;51.122;13.606;2022-11-25T09:00:04;14.18;;;13.10;;
68655;SDS011;55638;51.122;13.606;2022-11-25T09:01:36;14.25;;;13.15;;
68655;SDS011;55638;51.122;13.606;2022-11-25T09:03:09;14.10;;;13.00;;
68655;SDS011;55638;51.122;13.606;2022-11-25T09:04:42;13.98;;;12.98;;
68655;SDS011;55638;51.122;13.606;2022-11-25T09:06:14;14.43;;;13.13;;
68655;SDS011;55638;51.122;13.606;2022-11-25T09:07:47;14.07;;;12.80;;
68655;SDS011;55638;51.122;13.606;2022-11-25T09:09:19;15.48;;;14.18;;
68655;SDS011;55638;51.122;13.606;2022-11-25T09:10:51;14.13;;;12.95;;
68655;SDS011;55638;51.122;13.606;2022-11-25T09:12:23;14.18;;;13.18;;
68655;SDS011;55638;51.122;13.606;2022-11-25T09:13:54;14.80;;;13.60;;
68655;SDS011;55638;51.122;13.606;2022-11-25T09:15:26;14.65;;;13.45;;
68655;SDS011;55638;51.122;13.606;2022-11-25T09:16:58;14.20;;;13.00;;